Time;durP1;ratioP1;P1;durP2;ratioP2;P2;SDS_P1;SDS_P2;PMS_P1;PMS_P2;Temp;Humidity;BMP_temperature;BMP_pressure;BME280_temperature;BME280_humidity;BME280_pressure;Samples;Min_cycle;Max_cycle;Signal;HPM_P1;HPM_P2
2022/09/01 00:01:20;;;;;;;1.17;0.55;;;;;;;-140.72;0.00;52338.09;5056142;28;20107;-70
2022/09/01 00:03:51;;;;;;;2.22;0.70;;;;;;;-140.72;0.00;52392.88;5052383;28;20234;-71
2022/09/01 00:06:22;;;;;;;0.70;0.52;;;;;;;-140.72;0.00;52354.34;5054943;28;20025;-70
2022/09/01 00:08:52;;;;;;;1.23;0.70;;;;;;;-140.72;0.00;52368.53;5060218;28;20443;-70
2022/09/01 00:11:19;;;;;;;0.60;0.40;;;;;;;-140.72;0.00;52368.53;5058820;28;20032;-73
2022/09/01 00:13:45;;;;;;;1.95;0.80;;;;;;;-140.72;0.00;52358.41;5062647;28;20024;-72
2022/09/01 00:16:13;;;;;;;1.08;0.57;;;;;;;-140.72;0.00;52409.13;5062023;28;20131;-70
2022/09/01 00:18:41;;;;;;;1.40;0.82;;;;;;;-140.72;0.00;52309.69;5060557;28;20059;-71
2022/09/01 00:21:08;;;;;;;1.05;0.60;;;;;;;-140.72;0.00;52346.22;5058115;28;20036;-70
2022/09/01 00:23:33;;;;;;;2.50;0.80;;;;;;;-140.72;0.00;52332.03;5060177;28;20020;-70
2022/09/01 00:25:58;;;;;;;1.63;0.50;;;;;;;-140.72;0.00;52411.16;5056084;28;20095;-72
2022/09/01 00:28:24;;;;;;;2.50;0.70;;;;;;;-140.72;0.00;52394.91;5058675;28;20116;-72
2022/09/01 00:30:49;;;;;;;1.25;0.47;;;;;;;-140.72;0.00;52386.81;5052828;28;20025;-74
2022/09/01 00:33:15;;;;;;;0.90;0.55;;;;;;;-140.72;0.00;52394.91;5057630;28;20028;-71
2022/09/01 00:35:40;;;;;;;1.70;0.70;;;;;;;-140.72;0.00;52378.69;5058771;28;20519;-72
2022/09/01 00:38:06;;;;;;;1.08;0.95;;;;;;;-140.72;0.00;52378.69;5066712;28;20038;-70
2022/09/01 00:40:31;;;;;;;1.23;0.77;;;;;;;-140.72;0.00;52390.84;5054617;28;20484;-71
2022/09/01 00:42:57;;;;;;;1.30;0.75;;;;;;;-140.72;0.00;52378.69;5058435;28;20086;-71
2022/09/01 00:45:22;;;;;;;0.88;0.60;;;;;;;-140.72;0.00;52366.50;5059052;28;20108;-71
2022/09/01 00:47:48;;;;;;;1.30;0.65;;;;;;;-140.72;0.00;52398.97;5061872;28;20021;-73
2022/09/01 00:50:17;;;;;;;2.33;1.08;;;;;;;-140.72;0.00;52360.44;5054484;28;20028;-70
2022/09/01 00:52:50;;;;;;;1.13;0.77;;;;;;;-140.72;0.00;52378.69;5059061;28;20355;-71
2022/09/01 00:55:25;;;;;;;1.83;0.88;;;;;;;-140.72;0.00;52403.03;5058431;28;20431;-73
2022/09/01 00:57:51;;;;;;;1.25;0.68;;;;;;;-140.72;0.00;52396.94;5057308;28;20550;-71
2022/09/01 01:00:23;;;;;;;1.70;0.80;;;;;;;-140.72;0.00;52423.31;5060205;28;20044;-70
2022/09/01 01:02:55;;;;;;;1.70;0.88;;;;;;;-140.72;0.00;52411.16;5055131;28;20097;-71
2022/09/01 01:05:32;;;;;;;1.70;0.80;;;;;;;-140.72;0.00;52398.97;5059326;28;20085;-70
2022/09/01 01:08:00;;;;;;;0.98;0.60;;;;;;;-140.72;0.00;52405.06;5054258;28;20029;-69
2022/09/01 01:10:28;;;;;;;3.55;1.15;;;;;;;-140.72;0.00;52370.56;5058179;28;20032;-70
2022/09/01 01:12:55;;;;;;;1.17;0.63;;;;;;;-140.72;0.00;52386.81;5053389;28;20029;-70
2022/09/01 01:15:20;;;;;;;1.42;1.00;;;;;;;-140.72;0.00;52407.09;5057867;28;20082;-69
2022/09/01 01:17:45;;;;;;;1.90;0.90;;;;;;;-140.72;0.00;52382.75;5055906;28;20028;-71
2022/09/01 01:23:14;;;;;;;1.00;0.63;;;;;;;-140.72;0.00;52411.16;5054715;28;20388;-70
2022/09/01 01:25:45;;;;;;;1.63;0.93;;;;;;;-140.72;0.00;52415.22;5060213;28;20035;-69
2022/09/01 01:28:25;;;;;;;3.00;1.50;;;;;;;-140.72;0.00;52425.34;5061188;28;20036;-71
2022/09/01 01:31:13;;;;;;;1.42;0.82;;;;;;;-140.72;0.00;52409.13;5061446;28;20162;-71
2022/09/01 01:33:45;;;;;;;2.50;0.85;;;;;;;-140.72;0.00;52415.22;5057565;28;20631;-71
2022/09/01 01:36:16;;;;;;;1.98;1.13;;;;;;;-140.72;0.00;52356.38;5051371;28;20029;-70
2022/09/01 01:38:46;;;;;;;3.42;0.95;;;;;;;-140.72;0.00;52370.56;5062639;28;20025;-71
2022/09/01 01:41:12;;;;;;;;;;;;;;;-140.72;0.00;52378.69;5060197;28;20492;-71
2022/09/01 01:43:38;;;;;;;1.58;0.93;;;;;;;-140.72;0.00;52362.44;5056506;28;19966;-70
2022/09/01 01:46:07;;;;;;;1.75;1.00;;;;;;;-140.72;0.00;52423.31;5054621;28;20035;-72
2022/09/01 01:48:36;;;;;;;2.60;1.00;;;;;;;-140.72;0.00;52398.97;5057234;28;20036;-71
2022/09/01 01:51:03;;;;;;;1.55;0.90;;;;;;;-140.72;0.00;52423.31;5051394;28;20021;-70
2022/09/01 01:53:30;;;;;;;1.90;1.27;;;;;;;-140.72;0.00;52390.84;5061658;28;20056;-72
2022/09/01 01:55:57;;;;;;;1.60;0.88;;;;;;;-140.72;0.00;52409.13;5061856;28;20040;-70
2022/09/01 01:58:24;;;;;;;1.42;0.88;;;;;;;-140.72;0.00;52449.72;5062493;28;20021;-72
2022/09/01 02:00:52;;;;;;;1.50;0.82;;;;;;;-140.72;0.00;52392.88;5052189;28;20104;-72
2022/09/01 02:03:23;;;;;;;2.47;1.27;;;;;;;-140.72;0.00;52427.38;5058881;28;20020;-73
2022/09/01 02:05:52;;;;;;;2.10;1.02;;;;;;;-140.72;0.00;52417.25;5060619;28;20098;-72
2022/09/01 02:08:19;;;;;;;0.90;0.70;;;;;;;-140.72;0.00;52431.44;5053132;28;20017;-71
2022/09/01 02:10:48;;;;;;;1.42;1.00;;;;;;;-140.72;0.00;52435.50;5059618;28;20056;-70
2022/09/01 02:13:17;;;;;;;5.53;0.60;;;;;;;-140.72;0.00;52398.97;5052563;28;20029;-70
2022/09/01 02:15:49;;;;;;;1.35;0.80;;;;;;;-140.72;0.00;52429.41;5056599;28;20291;-70
2022/09/01 02:18:18;;;;;;;1.98;1.25;;;;;;;-140.72;0.00;52409.13;5057123;28;20020;-70
2022/09/01 02:20:46;;;;;;;1.17;0.80;;;;;;;-140.72;0.00;52403.03;5069292;28;20026;-71
2022/09/01 02:23:14;;;;;;;2.75;1.20;;;;;;;-140.72;0.00;52433.47;5060941;28;20025;-72
2022/09/01 02:25:43;;;;;;;1.02;0.68;;;;;;;-140.72;0.00;52419.28;5057600;28;20082;-70
2022/09/01 02:28:14;;;;;;;2.15;0.63;;;;;;;-140.72;0.00;52447.69;5057015;28;20104;-71
2022/09/01 02:30:45;;;;;;;1.92;0.90;;;;;;;-140.72;0.00;52427.38;5058496;28;20025;-70
2022/09/01 02:33:17;;;;;;;1.40;0.82;;;;;;;-140.72;0.00;52382.75;5063064;28;20145;-71
2022/09/01 02:35:48;;;;;;;1.40;0.93;;;;;;;-140.72;0.00;52388.84;5055226;28;20485;-70
2022/09/01 02:38:16;;;;;;;1.88;0.88;;;;;;;-140.72;0.00;52403.03;5052496;28;20051;-71
2022/09/01 02:40:45;;;;;;;1.10;0.75;;;;;;;-140.72;0.00;52447.69;5057896;28;20025;-71
2022/09/01 02:43:12;;;;;;;1.00;0.70;;;;;;;-140.72;0.00;52419.28;5056438;28;20036;-71
2022/09/01 02:45:38;;;;;;;1.40;0.70;;;;;;;-140.72;0.00;52415.22;5061611;28;20025;-70
2022/09/01 02:48:08;;;;;;;2.28;1.00;;;;;;;-140.72;0.00;52451.72;5057746;28;20499;-71
2022/09/01 02:50:34;;;;;;;1.85;1.42;;;;;;;-140.72;0.00;52401.00;5064230;28;20037;-70
2022/09/01 02:53:00;;;;;;;1.13;0.80;;;;;;;-140.72;0.00;52433.47;5061451;28;20385;-70
2022/09/01 02:55:26;;;;;;;1.13;0.77;;;;;;;-140.72;0.00;52431.44;5063133;28;20028;-69
2022/09/01 02:57:55;;;;;;;1.63;0.88;;;;;;;-140.72;0.00;52411.16;5058323;28;20099;-70
2022/09/01 03:00:27;;;;;;;1.20;0.80;;;;;;;-140.72;0.00;52431.44;5058438;28;20524;-71
2022/09/01 03:02:56;;;;;;;1.23;0.70;;;;;;;-140.72;0.00;52415.22;5061779;28;20025;-70
2022/09/01 03:05:25;;;;;;;1.10;0.85;;;;;;;-140.72;0.00;52459.84;5058037;28;20108;-72
2022/09/01 03:07:59;;;;;;;1.38;0.82;;;;;;;-140.72;0.00;52451.72;5059346;28;20104;-71
2022/09/01 03:10:31;;;;;;;1.77;0.98;;;;;;;-140.72;0.00;52467.97;5055382;28;20040;-70
2022/09/01 03:13:05;;;;;;;1.25;0.88;;;;;;;-140.72;0.00;52409.13;5060908;28;20042;-72
2022/09/01 03:15:32;;;;;;;1.15;0.60;;;;;;;-140.72;0.00;52425.34;5054795;28;20064;-71
2022/09/01 03:17:59;;;;;;;1.38;0.70;;;;;;;-140.72;0.00;52457.81;5057484;28;20476;-72
2022/09/01 03:20:26;;;;;;;1.95;0.75;;;;;;;-140.72;0.00;52429.41;5058019;28;20424;-73
2022/09/01 03:22:52;;;;;;;2.95;0.95;;;;;;;-140.72;0.00;52419.28;5050662;28;20020;-71
2022/09/01 03:25:18;;;;;;;0.98;0.70;;;;;;;-140.72;0.00;52437.53;5054785;28;20114;-73
2022/09/01 03:27:44;;;;;;;1.35;0.80;;;;;;;-140.72;0.00;52453.75;5060388;28;20020;-73
2022/09/01 03:30:10;;;;;;;1.40;1.00;;;;;;;-140.72;0.00;52419.28;5061324;28;20371;-71
2022/09/01 03:32:35;;;;;;;5.68;0.82;;;;;;;-140.72;0.00;52398.97;5058033;28;20029;-73
2022/09/01 03:35:01;;;;;;;1.98;0.85;;;;;;;-140.72;0.00;52439.56;5055713;28;20027;-72
2022/09/01 03:37:27;;;;;;;1.35;0.90;;;;;;;-140.72;0.00;52435.50;5065661;28;20036;-71
2022/09/01 03:39:53;;;;;;;1.90;1.20;;;;;;;-140.72;0.00;52407.09;5058056;28;20048;-71
2022/09/01 03:42:24;;;;;;;4.55;1.30;;;;;;;-140.72;0.00;52435.50;5055467;28;20025;-71
2022/09/01 03:44:52;;;;;;;2.72;0.88;;;;;;;-140.72;0.00;52435.50;5060404;28;20045;-72
2022/09/01 03:47:19;;;;;;;6.47;1.00;;;;;;;-140.72;0.00;52427.38;5058665;28;20770;-71
2022/09/01 03:49:48;;;;;;;3.10;1.20;;;;;;;-140.72;0.00;52423.31;5063195;28;20431;-72
2022/09/01 03:52:13;;;;;;;2.40;1.27;;;;;;;-140.72;0.00;52453.75;5062908;28;20055;-72
2022/09/01 03:54:39;;;;;;;2.38;1.05;;;;;;;-140.72;0.00;52455.78;5064352;28;20060;-71
2022/09/01 03:57:08;;;;;;;1.83;1.00;;;;;;;-140.72;0.00;52443.63;5058227;28;20029;-72
2022/09/01 03:59:34;;;;;;;3.22;0.85;;;;;;;-140.72;0.00;52425.34;5057950;28;20025;-72
2022/09/01 04:02:01;;;;;;;1.02;0.63;;;;;;;-140.72;0.00;52423.31;5058997;28;20035;-71
2022/09/01 04:04:30;;;;;;;2.17;1.25;;;;;;;-140.72;0.00;52447.69;5062206;28;20056;-72
2022/09/01 04:06:55;;;;;;;1.55;0.80;;;;;;;-140.72;0.00;52463.91;5055484;28;20107;-69
2022/09/01 04:09:21;;;;;;;2.22;1.13;;;;;;;-140.72;0.00;52467.97;5053946;28;20111;-70
2022/09/01 04:11:47;;;;;;;3.42;1.30;;;;;;;-140.72;0.00;52455.78;5055195;28;20029;-71
2022/09/01 04:14:13;;;;;;;4.57;1.10;;;;;;;-140.72;0.00;52443.63;5056243;28;20385;-74
2022/09/01 04:19:25;;;;;;;1.60;0.90;;;;;;;-140.72;0.00;52467.97;5062129;28;20456;-73
2022/09/01 04:22:00;;;;;;;1.42;1.00;;;;;;;-140.72;0.00;52435.50;5054863;28;20032;-72
2022/09/01 04:24:27;;;;;;;2.03;1.05;;;;;;;-140.72;0.00;52447.69;5054768;28;20060;-74
2022/09/01 04:26:57;;;;;;;1.67;0.93;;;;;;;-140.72;0.00;52413.19;5071856;28;20031;-71
2022/09/01 04:29:26;;;;;;;1.98;1.02;;;;;;;-140.72;0.00;52403.03;5060857;28;20095;-70
2022/09/01 04:31:52;;;;;;;4.60;1.67;;;;;;;-140.72;0.00;52435.50;5054849;28;20025;-71
2022/09/01 04:34:21;;;;;;;2.38;0.77;;;;;;;-140.72;0.00;52411.16;5058197;28;20024;-71
2022/09/01 04:36:47;;;;;;;1.40;1.02;;;;;;;-140.72;0.00;52447.69;5060094;28;20060;-73
2022/09/01 04:39:13;;;;;;;1.98;1.25;;;;;;;-140.72;0.00;52435.50;5056761;28;20029;-74
2022/09/01 04:41:44;;;;;;;2.15;0.90;;;;;;;-140.72;0.00;52407.09;5056571;28;20771;-73
2022/09/01 04:44:10;;;;;;;2.03;0.88;;;;;;;-140.72;0.00;52437.53;5061432;28;20040;-72
2022/09/01 04:46:41;;;;;;;2.22;1.05;;;;;;;-140.72;0.00;52401.00;5060196;28;20016;-73
2022/09/01 04:49:10;;;;;;;1.98;1.15;;;;;;;-140.72;0.00;52433.47;5058592;28;20028;-74
2022/09/01 04:51:44;;;;;;;1.25;0.82;;;;;;;-140.72;0.00;52392.88;5056792;28;20093;-72
2022/09/01 04:54:13;;;;;;;1.17;0.70;;;;;;;-140.72;0.00;52435.50;5063899;28;20071;-72
2022/09/01 04:56:40;;;;;;;1.47;1.00;;;;;;;-140.72;0.00;52459.84;5058705;28;20070;-74
2022/09/01 04:59:09;;;;;;;0.98;0.73;;;;;;;-140.72;0.00;52443.63;5058622;28;20278;-74
2022/09/01 05:01:42;;;;;;;6.07;1.23;;;;;;;-140.72;0.00;52445.66;5060252;28;20473;-74
2022/09/01 05:04:11;;;;;;;1.70;0.63;;;;;;;-140.72;0.00;52425.34;5054798;28;20120;-74
2022/09/01 05:06:43;;;;;;;1.75;0.80;;;;;;;-140.72;0.00;52415.22;5057081;28;20032;-72
2022/09/01 05:09:12;;;;;;;1.83;1.13;;;;;;;-140.72;0.00;52457.81;5059450;28;20025;-73
2022/09/01 05:11:40;;;;;;;1.85;0.90;;;;;;;-140.72;0.00;52419.28;5060218;28;20032;-74
2022/09/01 05:14:05;;;;;;;1.55;0.70;;;;;;;-140.72;0.00;52476.09;5056794;28;20458;-72
2022/09/01 05:16:33;;;;;;;1.92;0.90;;;;;;;-140.72;0.00;52398.97;5060487;28;20154;-74
2022/09/01 05:19:00;;;;;;;1.95;0.90;;;;;;;-140.72;0.00;52415.22;5056461;28;20040;-73
2022/09/01 05:21:28;;;;;;;1.67;1.00;;;;;;;-140.72;0.00;52429.41;5059692;28;20025;-72
2022/09/01 05:23:55;;;;;;;2.28;0.95;;;;;;;-140.72;0.00;52405.06;5054434;28;20067;-72
2022/09/01 05:26:25;;;;;;;1.45;0.77;;;;;;;-140.72;0.00;52429.41;5059948;28;20032;-72
2022/09/01 05:28:54;;;;;;;1.02;0.65;;;;;;;-140.72;0.00;52398.97;5054629;28;20172;-75
2022/09/01 05:31:21;;;;;;;2.03;0.60;;;;;;;-140.72;0.00;52417.25;5062565;28;20020;-72
2022/09/01 05:33:49;;;;;;;1.42;0.75;;;;;;;-140.72;0.00;52421.28;5076593;28;20025;-72
2022/09/01 05:36:21;;;;;;;2.25;0.82;;;;;;;-140.72;0.00;52433.47;5085435;28;20035;-72
2022/09/01 05:38:48;;;;;;;1.48;0.80;;;;;;;-140.72;0.00;52429.41;5080860;28;20024;-71
2022/09/01 05:41:16;;;;;;;1.00;0.70;;;;;;;-140.72;0.00;52392.88;5062369;28;20025;-72
2022/09/01 05:43:47;;;;;;;3.28;1.02;;;;;;;-140.72;0.00;52411.16;5068557;28;20055;-72
2022/09/01 05:46:15;;;;;;;2.65;0.95;;;;;;;-140.72;0.00;52396.94;5065247;28;20794;-71
2022/09/01 05:48:44;;;;;;;2.63;0.90;;;;;;;-140.72;0.00;52382.75;5053825;28;20029;-71
2022/09/01 05:51:15;;;;;;;3.20;0.93;;;;;;;-140.72;0.00;52447.69;5055701;28;20032;-72
2022/09/01 05:53:41;;;;;;;1.92;0.68;;;;;;;-140.72;0.00;52403.03;5059785;28;20059;-76
2022/09/01 05:56:12;;;;;;;1.92;0.98;;;;;;;-140.72;0.00;52398.97;5064531;28;20058;-70
2022/09/01 05:58:39;;;;;;;1.88;1.00;;;;;;;-140.72;0.00;52378.69;5069761;28;20025;-73
2022/09/01 06:01:05;;;;;;;2.17;1.45;;;;;;;-140.72;0.00;52433.47;5065187;28;20025;-73
2022/09/01 06:03:32;;;;;;;2.25;0.70;;;;;;;-140.72;0.00;52396.94;5060242;28;20260;-71
2022/09/01 06:06:11;;;;;;;3.33;1.08;;;;;;;-140.72;0.00;52366.50;5072581;28;20029;-71
2022/09/01 06:08:37;;;;;;;7.70;0.93;;;;;;;-140.72;0.00;52392.88;5058696;28;20116;-71
2022/09/01 06:11:11;;;;;;;1.73;1.00;;;;;;;-140.72;0.00;52411.16;5061216;28;20052;-72
2022/09/01 06:13:40;;;;;;;1.10;0.77;;;;;;;-140.72;0.00;52401.00;5055216;28;20040;-71
2022/09/01 06:16:07;;;;;;;1.92;0.80;;;;;;;-140.72;0.00;52403.03;5055111;28;20102;-73
2022/09/01 06:18:34;;;;;;;2.33;1.02;;;;;;;-140.72;0.00;52370.56;5063341;28;20036;-73
2022/09/01 06:21:03;;;;;;;1.67;0.88;;;;;;;-140.72;0.00;52390.84;5064971;28;20127;-74
2022/09/01 06:23:29;;;;;;;1.00;0.85;;;;;;;-140.72;0.00;52386.81;5061031;28;20029;-75
2022/09/01 06:25:54;;;;;;;1.20;0.55;;;;;;;-140.72;0.00;52453.75;5067036;28;20040;-73
2022/09/01 06:28:22;;;;;;;2.45;0.80;;;;;;;-140.72;0.00;52390.84;5053859;28;20029;-72
2022/09/01 06:30:49;;;;;;;1.65;1.00;;;;;;;-140.72;0.00;52445.66;5062378;28;20383;-75
2022/09/01 06:33:14;;;;;;;4.55;0.82;;;;;;;-140.72;0.00;52396.94;5057532;28;20040;-71
2022/09/01 06:35:43;;;;;;;1.33;0.65;;;;;;;-140.72;0.00;52411.16;5062873;28;20029;-72
2022/09/01 06:38:10;;;;;;;1.08;0.70;;;;;;;-140.72;0.00;52394.91;5055866;28;20039;-74
2022/09/01 06:40:39;;;;;;;2.00;1.15;;;;;;;-140.72;0.00;52376.66;5058562;28;20039;-73
2022/09/01 06:43:08;;;;;;;1.20;0.60;;;;;;;-140.72;0.00;52378.69;5055753;28;20587;-71
2022/09/01 06:45:42;;;;;;;1.38;0.88;;;;;;;-140.72;0.00;52405.06;5070400;28;20021;-74
2022/09/01 06:48:08;;;;;;;2.13;1.13;;;;;;;-140.72;0.00;52398.97;5055738;28;20271;-71
2022/09/01 06:50:34;;;;;;;1.88;0.68;;;;;;;-140.72;0.00;52396.94;5058112;28;20059;-72
2022/09/01 06:53:09;;;;;;;1.10;0.98;;;;;;;-140.72;0.00;52364.47;5055928;28;20112;-70
2022/09/01 06:55:38;;;;;;;1.80;1.05;;;;;;;-140.72;0.00;52386.81;5066036;28;20051;-71
2022/09/01 06:58:06;;;;;;;1.10;0.77;;;;;;;-140.72;0.00;52378.69;5060821;28;20465;-74
2022/09/01 07:00:34;;;;;;;2.92;1.17;;;;;;;-140.72;0.00;52423.31;5068483;28;20469;-71
2022/09/01 07:02:59;;;;;;;1.58;0.80;;;;;;;-140.72;0.00;52356.38;5074979;28;20031;-72
2022/09/01 07:05:24;;;;;;;1.42;0.85;;;;;;;-140.72;0.00;52388.84;5057267;28;20104;-71
2022/09/01 07:07:54;;;;;;;1.42;0.57;;;;;;;-140.72;0.00;52362.44;5064455;28;20492;-73
2022/09/01 07:10:24;;;;;;;3.45;0.90;;;;;;;-140.72;0.00;52386.81;5063930;28;20033;-72
2022/09/01 07:12:55;;;;;;;0.80;0.55;;;;;;;-140.72;0.00;52342.16;5055371;28;20070;-72
2022/09/01 07:15:22;;;;;;;2.53;0.98;;;;;;;-140.72;0.00;52352.31;5061483;28;20400;-74
2022/09/01 07:17:55;;;;;;;1.55;1.10;;;;;;;-140.72;0.00;52374.63;5059291;28;20174;-74
2022/09/01 07:20:23;;;;;;;1.40;0.60;;;;;;;-140.72;0.00;52364.47;5050335;28;20033;-73
2022/09/01 07:22:51;;;;;;;2.95;1.20;;;;;;;-140.72;0.00;52378.69;5062925;28;20032;-72
2022/09/01 07:25:17;;;;;;;5.25;0.70;;;;;;;-140.72;0.00;52378.69;5056947;28;20481;-74
2022/09/01 07:27:49;;;;;;;2.35;0.65;;;;;;;-140.72;0.00;52394.91;5060949;28;20017;-73
2022/09/01 07:30:21;;;;;;;1.35;0.63;;;;;;;-140.72;0.00;52348.25;5057253;28;20373;-74
2022/09/01 07:32:47;;;;;;;1.92;1.13;;;;;;;-140.72;0.00;52364.47;5063967;28;20028;-72
2022/09/01 07:35:15;;;;;;;1.85;1.00;;;;;;;-140.72;0.00;52374.63;5057786;28;20037;-71
2022/09/01 07:37:41;;;;;;;2.05;1.30;;;;;;;-140.72;0.00;52356.38;5058694;28;20595;-72
2022/09/01 07:40:09;;;;;;;1.48;0.93;;;;;;;-140.72;0.00;52376.66;5072494;28;20086;-71
2022/09/01 07:42:37;;;;;;;2.55;0.98;;;;;;;-140.72;0.00;52350.28;5064135;28;20036;-73
2022/09/01 07:45:10;;;;;;;1.50;0.90;;;;;;;-140.72;0.00;52386.81;5063931;28;20055;-72
2022/09/01 07:47:36;;;;;;;1.63;0.82;;;;;;;-140.72;0.00;52390.84;5062220;28;20036;-70
2022/09/01 07:50:07;;;;;;;1.60;0.88;;;;;;;-140.72;0.00;52372.59;5066943;28;20031;-71
2022/09/01 07:52:35;;;;;;;1.60;0.90;;;;;;;-140.72;0.00;52368.53;5069007;28;20029;-73
2022/09/01 07:55:02;;;;;;;1.85;1.05;;;;;;;-140.72;0.00;52382.75;5070636;28;20535;-73
2022/09/01 07:57:27;;;;;;;2.60;0.95;;;;;;;-140.72;0.00;52336.06;5064560;28;20428;-71
2022/09/01 07:59:54;;;;;;;1.67;1.10;;;;;;;-140.72;0.00;52366.50;5063006;28;20028;-70
2022/09/01 08:02:20;;;;;;;1.67;1.00;;;;;;;-140.72;0.00;52340.13;5062632;28;20050;-70
2022/09/01 08:04:45;;;;;;;2.45;1.27;;;;;;;-140.72;0.00;52344.19;5063698;28;20519;-73
2022/09/01 08:07:11;;;;;;;2.28;1.00;;;;;;;-140.72;0.00;52362.44;5058660;28;20039;-73
2022/09/01 08:09:37;;;;;;;1.63;0.93;;;;;;;-140.72;0.00;52297.53;5067101;28;20033;-72
2022/09/01 08:12:04;;;;;;;3.22;1.27;;;;;;;-140.72;0.00;52340.13;5060139;28;20040;-72
2022/09/01 08:14:30;;;;;;;2.92;0.85;;;;;;;-140.72;0.00;52358.41;5059841;28;20040;-72
2022/09/01 08:16:56;;;;;;;1.83;0.80;;;;;;;-140.72;0.00;52295.50;5058692;28;20044;-73
2022/09/01 08:19:21;;;;;;;2.45;1.15;;;;;;;-140.72;0.00;52301.59;5062187;28;20035;-72
2022/09/01 08:21:47;;;;;;;2.17;1.02;;;;;;;-140.72;0.00;52327.97;5060051;28;20039;-74
2022/09/01 08:24:13;;;;;;;1.02;0.70;;;;;;;-140.72;0.00;52342.16;5052202;28;20036;-73
2022/09/01 08:26:39;;;;;;;2.40;0.88;;;;;;;-140.72;0.00;52281.28;5057273;28;20381;-74
2022/09/01 08:29:04;;;;;;;2.38;0.75;;;;;;;-140.72;0.00;52303.59;5059789;28;20028;-73
2022/09/01 08:31:31;;;;;;;1.17;0.70;;;;;;;-140.72;0.00;52291.44;5062286;28;20037;-72
2022/09/01 08:33:57;;;;;;;1.92;0.82;;;;;;;-140.72;0.00;52283.31;5061010;28;20107;-74
2022/09/01 08:36:23;;;;;;;1.88;0.70;;;;;;;-140.72;0.00;52273.19;5051905;28;20098;-70
2022/09/01 08:38:49;;;;;;;1.77;0.77;;;;;;;-140.72;0.00;52246.78;5057845;28;20103;-70
2022/09/01 08:41:39;;;;;;;1.30;0.60;;;;;;;-140.72;0.00;52192.00;5056825;28;20037;-72
2022/09/01 08:44:26;;;;;;;1.55;0.60;;;;;;;-140.72;0.00;52208.25;5059493;28;20028;-71
2022/09/01 08:47:02;;;;;;;2.58;1.05;;;;;;;-140.72;0.00;52244.78;5054347;28;20029;-71
2022/09/01 08:49:28;;;;;;;1.90;0.95;;;;;;;-140.72;0.00;52196.06;5052670;28;20440;-72
2022/09/01 08:52:37;;;;;;;1.50;1.10;;;;;;;-140.72;0.00;52198.09;5063521;28;20442;-71
2022/09/01 08:55:24;;;;;;;1.35;0.50;;;;;;;-140.72;0.00;52175.78;4992866;28;20031;-72
2022/09/01 08:57:54;;;;;;;0.95;0.40;;;;;;;-140.72;0.00;52149.41;4988466;28;20033;-71
2022/09/01 09:00:23;;;;;;;1.13;0.57;;;;;;;-140.72;0.00;52102.75;5041060;28;20129;-72
2022/09/01 09:03:05;;;;;;;1.20;0.63;;;;;;;-140.72;0.00;52129.13;5062799;28;20029;-72
2022/09/01 09:06:16;;;;;;;0.90;0.60;;;;;;;-140.72;0.00;52102.75;5051556;28;20377;-71
2022/09/01 09:09:04;;;;;;;1.55;0.50;;;;;;;-140.72;0.00;52072.31;5067882;28;20024;-72
2022/09/01 09:11:49;;;;;;;2.00;0.87;;;;;;;-140.72;0.00;52098.69;5085825;28;20024;-71
2022/09/01 09:14:39;;;;;;;1.38;0.70;;;;;;;-140.72;0.00;52080.41;5050086;28;20366;-73
2022/09/01 09:17:08;;;;;;;1.05;0.40;;;;;;;-140.72;0.00;52086.50;5047711;28;20041;-71
2022/09/01 09:19:37;;;;;;;1.25;0.52;;;;;;;-140.72;0.00;52074.34;5071302;28;20492;-72
2022/09/01 09:22:14;;;;;;;0.88;0.38;;;;;;;-140.72;0.00;52072.31;5068861;28;20024;-72
2022/09/01 09:24:47;;;;;;;2.60;0.60;;;;;;;-140.72;0.00;52047.97;5069597;28;20046;-72
2022/09/01 09:27:43;;;;;;;1.33;0.50;;;;;;;-140.72;0.00;52029.69;5072755;28;20028;-72
2022/09/01 09:30:22;;;;;;;1.05;0.60;;;;;;;-140.72;0.00;52031.72;5040545;28;20045;-75
2022/09/01 09:32:59;;;;;;;1.33;0.57;;;;;;;-140.72;0.00;52001.28;5065263;28;20033;-73
2022/09/01 09:35:40;;;;;;;1.00;0.45;;;;;;;-140.72;0.00;51989.13;5052626;28;20037;-74
2022/09/01 09:38:18;;;;;;;1.33;0.52;;;;;;;-140.72;0.00;51960.72;5070372;28;20017;-72
2022/09/01 09:41:07;;;;;;;1.80;0.50;;;;;;;-140.72;0.00;51972.88;5074103;28;20191;-71
2022/09/01 09:43:37;;;;;;;1.02;0.43;;;;;;;-140.72;0.00;52029.69;5068241;28;20457;-73
2022/09/01 09:46:21;;;;;;;1.73;0.68;;;;;;;-140.72;0.00;51954.63;5079336;28;20013;-69
2022/09/01 09:48:47;;;;;;;0.57;0.30;;;;;;;-140.72;0.00;51974.91;5063847;28;20028;-71
2022/09/01 09:51:23;;;;;;;0.57;0.30;;;;;;;-140.72;0.00;51974.91;5067647;28;20036;-71
2022/09/01 09:53:52;;;;;;;0.93;0.30;;;;;;;-140.72;0.00;51936.38;5071702;28;20592;-73
2022/09/01 09:56:25;;;;;;;1.27;0.40;;;;;;;-140.72;0.00;51976.94;5072799;28;20029;-70
2022/09/01 09:58:52;;;;;;;0.43;0.15;;;;;;;-140.72;0.00;51966.81;5072796;28;20477;-73
2022/09/01 10:01:24;;;;;;;0.82;0.30;;;;;;;-140.72;0.00;51940.41;5068795;28;20078;-72
2022/09/01 10:03:51;;;;;;;0.43;0.20;;;;;;;-140.72;0.00;51948.53;5056027;28;20052;-71
2022/09/01 10:06:37;;;;;;;0.70;0.13;;;;;;;-140.72;0.00;51952.59;5070633;28;20032;-72
2022/09/01 10:09:06;;;;;;;0.82;0.40;;;;;;;-140.72;0.00;51940.41;5062609;28;20047;-71
2022/09/01 10:11:43;;;;;;;0.55;0.30;;;;;;;-140.72;0.00;51895.78;5064415;28;20033;-71
2022/09/01 10:14:19;;;;;;;0.93;0.38;;;;;;;-140.72;0.00;51940.41;5073863;28;20031;-72
2022/09/01 10:16:49;;;;;;;1.27;0.10;;;;;;;-140.72;0.00;51907.97;5074513;28;20051;-75
2022/09/01 10:19:15;;;;;;;1.02;0.40;;;;;;;-140.72;0.00;51914.03;5069304;28;20333;-73
2022/09/01 10:21:43;;;;;;;0.73;0.30;;;;;;;-140.72;0.00;51838.97;5057922;28;20025;-71
2022/09/01 10:24:18;;;;;;;0.85;0.20;;;;;;;-140.72;0.00;51875.50;5065260;28;20040;-73
2022/09/01 10:26:46;;;;;;;0.80;0.20;;;;;;;-140.72;0.00;51818.69;5056444;28;20473;-73
2022/09/01 10:29:14;;;;;;;0.10;0.10;;;;;;;-140.72;0.00;51863.31;5057223;28;20028;-73
2022/09/01 10:31:41;;;;;;;0.50;0.22;;;;;;;-140.72;0.00;51800.44;5069915;28;20028;-71
2022/09/01 10:34:16;;;;;;;1.05;0.50;;;;;;;-140.72;0.00;51818.69;5074088;28;20037;-75
2022/09/01 10:36:44;;;;;;;1.05;0.50;;;;;;;-140.72;0.00;51806.53;5073021;28;20043;-73
2022/09/01 10:39:13;;;;;;;0.63;0.22;;;;;;;-140.72;0.00;51806.53;5062024;28;20472;-71
2022/09/01 10:41:47;;;;;;;1.33;0.35;;;;;;;-140.72;0.00;51786.22;5065958;28;20021;-71
2022/09/01 10:44:20;;;;;;;1.23;0.32;;;;;;;-140.72;0.00;51794.34;5067906;28;20151;-70
2022/09/01 10:46:46;;;;;;;1.63;0.20;;;;;;;-140.72;0.00;51792.31;5057069;28;20063;-71
2022/09/01 10:49:31;;;;;;;1.55;0.20;;;;;;;-140.72;0.00;51745.66;5058393;28;20036;-70
2022/09/01 10:51:57;;;;;;;1.17;0.20;;;;;;;-140.72;0.00;51696.97;5057765;28;20032;-72
2022/09/01 10:54:37;;;;;;;1.05;0.20;;;;;;;-140.72;0.00;51733.47;5069145;28;20145;-74
2022/09/01 10:57:10;;;;;;;1.38;0.40;;;;;;;-140.72;0.00;51692.91;5076030;28;20032;-71
2022/09/01 10:59:38;;;;;;;0.50;0.17;;;;;;;-140.72;0.00;51652.34;5072807;28;20032;-72
2022/09/01 11:02:14;;;;;;;0.65;0.22;;;;;;;-140.72;0.00;51660.44;5073062;28;20469;-72
2022/09/01 11:04:40;;;;;;;0.82;0.20;;;;;;;-140.72;0.00;51664.50;5060634;28;20032;-73
2022/09/01 11:07:29;;;;;;;2.20;0.20;;;;;;;-140.72;0.00;51672.63;5068199;28;20155;-74
2022/09/01 11:10:28;;;;;;;0.93;0.10;;;;;;;-140.72;0.00;51672.63;5060892;28;20017;-73
2022/09/01 11:13:09;;;;;;;0.63;0.10;;;;;;;-140.72;0.00;51648.28;5059169;28;20216;-71
2022/09/01 11:15:41;;;;;;;0.75;0.25;;;;;;;-140.72;0.00;51621.91;5053535;28;20043;-73
2022/09/01 11:18:10;;;;;;;1.85;0.20;;;;;;;-140.72;0.00;51603.63;5059191;28;20108;-72
2022/09/01 11:20:38;;;;;;;0.82;0.20;;;;;;;-140.72;0.00;51674.66;5063656;28;20380;-72
2022/09/01 11:23:25;;;;;;;0.25;0.10;;;;;;;-140.72;0.00;51759.84;5057657;28;20063;-69
2022/09/01 11:26:01;;;;;;;0.28;0.13;;;;;;;-140.72;0.00;51804.50;5063509;28;20032;-72
2022/09/01 11:28:27;;;;;;;0.75;0.20;;;;;;;-140.72;0.00;51666.53;5058719;28;20467;-71
2022/09/01 11:30:59;;;;;;;1.02;0.30;;;;;;;-140.72;0.00;51632.03;5060619;28;20146;-73
2022/09/01 11:33:33;;;;;;;0.40;0.20;;;;;;;-140.72;0.00;51593.50;5054518;28;20122;-70
2022/09/01 11:36:18;;;;;;;0.90;0.20;;;;;;;-140.72;0.00;51581.31;5058653;28;20029;-71
2022/09/01 11:38:50;;;;;;;0.25;0.10;;;;;;;-140.72;0.00;51554.94;5060186;28;20468;-73
2022/09/01 11:41:22;;;;;;;0.70;0.13;;;;;;;-140.72;0.00;51583.34;5060367;28;20081;-70
2022/09/01 11:43:50;;;;;;;0.80;0.20;;;;;;;-140.72;0.00;51577.28;5064848;28;20021;-71